Time;durP1;ratioP1;P1;durP2;ratioP2;P2;SDS_P1;SDS_P2;PMS_P1;PMS_P2;Temp;Humidity;BMP_temperature;BMP_pressure;BME280_temperature;BME280_humidity;BME280_pressure;Samples;Min_cycle;Max_cycle;Signal;HPM_P1;HPM_P2
2021/12/19 00:00:50;;;;;;;4.18;2.05;;;0.50;97.10;;;;;;5013963;28;20124;-78
2021/12/19 00:11:05;;;;;;;3.30;1.80;;;0.50;97.80;;;;;;5034644;28;20459;-79
2021/12/19 00:13:31;;;;;;;3.50;1.92;;;0.40;97.80;;;;;;5016701;28;20048;-79
2021/12/19 00:15:57;;;;;;;3.13;1.98;;;0.50;98.10;;;;;;5034235;28;20530;-78
2021/12/19 00:18:24;;;;;;;2.80;1.70;;;0.50;98.30;;;;;;5016611;28;20041;-78
2021/12/19 00:20:53;;;;;;;2.45;1.85;;;0.50;98.50;;;;;;5034541;28;20056;-78
2021/12/19 00:23:20;;;;;;;2.20;1.70;;;0.50;98.50;;;;;;5016207;28;20049;-77
2021/12/19 00:25:46;;;;;;;2.40;1.67;;;0.50;98.60;;;;;;5008064;28;20440;-76
2021/12/19 00:28:12;;;;;;;2.40;1.67;;;0.40;98.90;;;;;;5021195;28;20034;-77
2021/12/19 00:30:37;;;;;;;3.60;1.60;;;0.50;99.20;;;;;;5034188;28;20460;-77
2021/12/19 00:33:03;;;;;;;3.05;1.67;;;0.50;99.40;;;;;;5016269;28;20037;-77
2021/12/19 00:35:29;;;;;;;2.45;1.70;;;0.50;99.60;;;;;;5016453;28;20037;-77
2021/12/19 00:37:54;;;;;;;2.42;1.73;;;0.50;99.60;;;;;;5012830;28;20403;-78
2021/12/19 00:40:21;;;;;;;3.83;1.98;;;0.50;99.80;;;;;;5014199;28;20038;-78
2021/12/19 00:42:51;;;;;;;3.30;2.10;;;0.50;99.90;;;;;;4996774;28;20054;-78
2021/12/19 00:45:30;;;;;;;3.15;1.95;;;0.50;99.90;;;;;;4996496;28;20052;-77
2021/12/19 00:47:57;;;;;;;3.55;2.00;;;0.50;99.90;;;;;;5013279;28;20034;-77
2021/12/19 00:50:24;;;;;;;3.53;2.00;;;0.50;99.90;;;;;;5012584;28;20276;-78
2021/12/19 00:52:50;;;;;;;5.15;2.45;;;0.50;99.90;;;;;;5013804;28;20451;-78
2021/12/19 00:55:18;;;;;;;2.97;2.08;;;0.50;99.90;;;;;;5012961;28;20180;-77
2021/12/19 00:57:44;;;;;;;2.50;1.90;;;0.50;99.90;;;;;;4995406;28;20065;-77
2021/12/19 01:00:13;;;;;;;4.97;2.40;;;0.50;99.90;;;;;;4996120;28;20124;-78
2021/12/19 01:02:39;;;;;;;4.68;2.67;;;0.50;99.90;;;;;;4996632;28;20073;-78
2021/12/19 01:05:07;;;;;;;3.38;2.20;;;0.50;99.90;;;;;;5013930;28;20045;-78
2021/12/19 01:07:33;;;;;;;4.40;2.50;;;0.50;99.90;;;;;;5014024;28;20445;-78
2021/12/19 01:09:59;;;;;;;5.00;2.58;;;0.60;99.90;;;;;;5012724;28;20121;-77
2021/12/19 01:12:26;;;;;;;4.20;2.50;;;0.50;99.90;;;;;;5014019;28;20065;-78
2021/12/19 01:14:53;;;;;;;5.28;2.85;;;0.50;99.90;;;;;;4980158;28;20046;-78
2021/12/19 01:17:19;;;;;;;7.25;2.55;;;0.50;99.90;;;;;;4996295;28;20034;-78
2021/12/19 01:19:45;;;;;;;4.70;2.50;;;0.60;99.90;;;;;;4995927;28;20445;-78
2021/12/19 01:22:12;;;;;;;4.70;2.65;;;0.60;99.90;;;;;;5013630;28;20388;-77
2021/12/19 01:24:38;;;;;;;4.32;2.40;;;0.60;99.90;;;;;;5013856;28;20436;-78
2021/12/19 01:27:04;;;;;;;3.58;2.28;;;0.60;99.90;;;;;;5014016;28;20046;-77
2021/12/19 01:29:30;;;;;;;4.25;2.35;;;0.60;99.90;;;;;;5012658;28;20042;-77
2021/12/19 01:31:56;;;;;;;3.22;2.20;;;0.60;99.90;;;;;;5013712;28;20042;-77
2021/12/19 01:34:22;;;;;;;3.95;2.28;;;0.60;99.90;;;;;;5013680;28;20026;-77
2021/12/19 01:36:48;;;;;;;3.03;2.20;;;0.60;99.90;;;;;;4996272;28;20046;-78
2021/12/19 01:39:14;;;;;;;2.92;2.15;;;0.60;99.90;;;;;;4996188;28;20481;-78
2021/12/19 01:42:11;;;;;;;4.07;2.42;;;0.60;99.90;;;;;;5014028;28;20040;-78
2021/12/19 01:44:37;;;;;;;3.63;2.47;;;0.60;99.90;;;;;;5012260;28;20050;-78
2021/12/19 01:47:04;;;;;;;3.33;2.10;;;0.60;99.90;;;;;;5013880;28;20384;-78
2021/12/19 01:49:30;;;;;;;3.55;2.30;;;0.60;99.90;;;;;;4996536;28;20061;-78
2021/12/19 01:51:56;;;;;;;4.75;2.50;;;0.60;99.90;;;;;;5012384;28;20037;-77
2021/12/19 01:54:22;;;;;;;5.03;2.40;;;0.70;99.90;;;;;;5000128;28;20037;-77
2021/12/19 01:56:48;;;;;;;4.05;2.30;;;0.70;99.90;;;;;;5017206;28;20113;-78
2021/12/19 01:59:14;;;;;;;4.10;2.50;;;0.70;99.90;;;;;;5014119;28;20042;-78
2021/12/19 02:01:44;;;;;;;3.42;2.50;;;0.70;99.90;;;;;;5013349;28;20041;-78
2021/12/19 02:04:12;;;;;;;4.15;2.97;;;0.70;99.90;;;;;;4996040;28;20088;-77
2021/12/19 02:06:39;;;;;;;3.15;2.30;;;0.70;99.90;;;;;;5012447;28;20074;-77
2021/12/19 02:09:06;;;;;;;4.03;2.70;;;0.70;99.90;;;;;;5018094;28;20053;-77
2021/12/19 02:11:37;;;;;;;3.95;2.50;;;0.70;99.90;;;;;;5037350;28;20419;-78
2021/12/19 02:14:05;;;;;;;3.40;2.42;;;0.70;99.90;;;;;;5019252;28;20037;-77
2021/12/19 02:16:31;;;;;;;4.28;2.67;;;0.60;99.90;;;;;;5036996;28;20038;-77
2021/12/19 02:18:59;;;;;;;4.70;3.00;;;0.60;99.90;;;;;;5018898;28;20091;-78
2021/12/19 02:21:24;;;;;;;5.70;2.80;;;0.60;99.90;;;;;;5018910;28;20039;-78
2021/12/19 02:23:51;;;;;;;5.38;2.90;;;0.60;99.90;;;;;;5018599;28;20136;-78
2021/12/19 02:26:18;;;;;;;5.53;3.25;;;0.70;99.90;;;;;;5017020;28;20034;-78
2021/12/19 02:28:44;;;;;;;6.22;3.28;;;0.60;99.90;;;;;;5025987;28;20094;-78
2021/12/19 02:31:10;;;;;;;5.50;3.17;;;0.60;99.90;;;;;;5036955;28;20399;-78
2021/12/19 02:33:40;;;;;;;7.60;3.67;;;0.70;99.90;;;;;;5018158;28;20391;-78
2021/12/19 02:49:24;;;;;;;5.68;3.42;;;0.60;99.90;;;;;;5016731;28;20045;-79
2021/12/19 02:51:52;;;;;;;6.18;3.80;;;0.60;99.90;;;;;;5016459;28;20034;-82
2021/12/19 02:54:20;;;;;;;6.85;3.80;;;0.60;99.90;;;;;;5009414;28;20049;-79
2021/12/19 02:56:46;;;;;;;7.93;3.83;;;0.60;99.90;;;;;;5001075;28;20037;-79
2021/12/19 02:59:11;;;;;;;5.80;3.58;;;0.60;99.90;;;;;;4997300;28;20173;-79
2021/12/19 03:01:37;;;;;;;7.47;3.97;;;0.60;99.90;;;;;;4998469;28;20030;-78
2021/12/19 03:04:03;;;;;;;7.53;4.38;;;0.60;99.90;;;;;;5015319;28;20056;-78
2021/12/19 03:06:29;;;;;;;8.05;4.40;;;0.60;99.90;;;;;;4998890;28;20042;-78
2021/12/19 03:08:58;;;;;;;7.57;4.32;;;0.60;99.90;;;;;;4998479;28;20069;-79
2021/12/19 03:19:35;;;;;;;8.40;4.47;;;0.70;99.90;;;;;;5014043;28;20582;-79
2021/12/19 03:22:03;;;;;;;8.38;5.07;;;0.80;99.90;;;;;;4997617;28;20124;-79
2021/12/19 03:24:31;;;;;;;8.98;5.35;;;0.80;99.90;;;;;;5015500;28;20046;-78
2021/12/19 03:26:56;;;;;;;7.85;4.85;;;0.80;99.90;;;;;;4997958;28;20037;-78
2021/12/19 03:29:22;;;;;;;8.70;5.25;;;0.80;99.90;;;;;;4996489;28;20034;-78
2021/12/19 03:31:48;;;;;;;9.75;5.22;;;0.80;99.90;;;;;;4998412;28;20033;-78
2021/12/19 03:34:15;;;;;;;9.10;5.20;;;0.90;99.90;;;;;;4998078;28;20073;-77
2021/12/19 03:36:41;;;;;;;8.90;5.45;;;0.90;99.90;;;;;;5013820;28;20465;-78
2021/12/19 03:39:15;;;;;;;9.02;5.35;;;0.90;99.90;;;;;;4997999;28;20042;-78
2021/12/19 03:41:42;;;;;;;8.35;5.57;;;0.90;99.90;;;;;;4998905;28;20380;-78
2021/12/19 03:44:08;;;;;;;9.82;5.10;;;1.00;99.90;;;;;;4997043;28;20476;-78
2021/12/19 03:46:35;;;;;;;9.80;5.95;;;0.90;99.90;;;;;;5002340;28;20045;-78
2021/12/19 03:49:02;;;;;;;10.68;6.35;;;1.00;99.90;;;;;;5014074;28;20133;-78
2021/12/19 03:51:28;;;;;;;10.05;5.88;;;1.00;99.90;;;;;;4997879;28;20120;-79
2021/12/19 03:53:53;;;;;;;9.75;5.82;;;1.00;99.90;;;;;;5016745;28;20069;-78
2021/12/19 03:56:19;;;;;;;10.15;6.32;;;1.00;99.90;;;;;;5028478;28;20030;-78
2021/12/19 03:58:45;;;;;;;10.43;6.40;;;1.00;99.90;;;;;;5015798;28;20037;-78
2021/12/19 04:01:11;;;;;;;12.65;6.65;;;1.00;99.90;;;;;;4997716;28;20038;-78
2021/12/19 04:03:37;;;;;;;11.35;6.60;;;1.10;99.90;;;;;;5015333;28;20124;-78
2021/12/19 04:06:04;;;;;;;10.73;6.03;;;1.00;99.90;;;;;;5026558;28;20078;-78
2021/12/19 04:08:29;;;;;;;10.45;6.43;;;1.10;99.90;;;;;;5017242;28;20044;-78
2021/12/19 04:10:55;;;;;;;10.88;6.47;;;1.10;99.90;;;;;;4999783;28;20030;-78
2021/12/19 04:13:22;;;;;;;11.60;6.90;;;1.10;99.90;;;;;;4997597;28;20034;-78
2021/12/19 04:15:53;;;;;;;14.23;7.20;;;1.10;99.90;;;;;;5013786;28;20432;-79
2021/12/19 04:18:21;;;;;;;11.93;7.28;;;1.10;99.90;;;;;;4997609;28;20040;-78
2021/12/19 04:20:47;;;;;;;11.70;6.78;;;1.10;99.90;;;;;;4996682;28;20041;-78
2021/12/19 04:23:12;;;;;;;10.73;6.65;;;1.10;99.90;;;;;;4997331;28;20034;-78
2021/12/19 04:25:39;;;;;;;11.05;6.88;;;1.10;99.90;;;;;;4996963;28;20477;-79
2021/12/19 04:28:05;;;;;;;13.13;7.53;;;1.10;99.90;;;;;;4996959;28;20480;-79
2021/12/19 04:30:31;;;;;;;12.63;6.70;;;1.10;99.90;;;;;;5026936;28;20476;-79
2021/12/19 04:33:01;;;;;;;13.98;7.97;;;1.10;99.90;;;;;;5016617;28;20038;-78
2021/12/19 04:35:31;;;;;;;15.38;7.47;;;1.10;99.90;;;;;;5010120;28;20049;-79
2021/12/19 04:40:41;;;;;;;12.60;8.23;;;1.20;99.90;;;;;;5014594;28;20161;-78
2021/12/19 04:56:46;;;;;;;13.88;8.00;;;1.20;99.90;;;;;;5005934;28;20030;-77
2021/12/19 04:59:49;;;;;;;14.70;7.50;;;1.20;99.90;;;;;;4996554;28;20030;-78
2021/12/19 05:05:18;;;;;;;13.93;8.10;;;1.30;99.90;;;;;;5013104;28;20045;-77
2021/12/19 05:15:43;;;;;;;12.43;8.13;;;1.30;99.90;;;;;;5014298;28;20056;-77
2021/12/19 05:18:09;;;;;;;;;;;1.30;99.90;;;;;;5014326;28;20065;-77
2021/12/19 05:20:36;;;;;;;13.57;8.65;;;1.30;99.90;;;;;;4996460;28;19905;-77
2021/12/19 05:23:20;;;;;;;13.77;8.35;;;1.30;99.90;;;;;;5013905;28;20088;-78
2021/12/19 05:25:46;;;;;;;11.05;7.82;;;1.30;99.90;;;;;;5014304;28;20054;-78
2021/12/19 05:28:11;;;;;;;13.07;7.72;;;1.30;99.90;;;;;;5013957;28;20034;-78
2021/12/19 05:30:37;;;;;;;14.52;8.23;;;1.30;99.90;;;;;;5014030;28;20489;-79
2021/12/19 05:33:05;;;;;;;13.63;8.70;;;1.40;99.90;;;;;;4995083;28;20037;-78
2021/12/19 05:46:24;;;;;;;12.10;7.78;;;1.30;99.90;;;;;;5017719;28;20416;-79
2021/12/19 05:48:49;;;;;;;14.43;8.55;;;1.40;99.90;;;;;;5000013;28;20034;-79
2021/12/19 05:51:15;;;;;;;13.65;8.57;;;1.30;99.90;;;;;;5000035;28;20037;-79
2021/12/19 05:53:41;;;;;;;14.57;8.57;;;1.40;99.90;;;;;;4999490;28;20439;-79
2021/12/19 05:56:10;;;;;;;14.65;9.23;;;1.40;99.90;;;;;;4999623;28;20548;-79
2021/12/19 05:58:36;;;;;;;15.48;9.43;;;1.40;99.90;;;;;;4999898;28;20042;-78
2021/12/19 06:01:03;;;;;;;14.82;8.93;;;1.40;99.90;;;;;;5023537;28;20037;-78
2021/12/19 06:03:29;;;;;;;13.65;7.90;;;1.40;99.90;;;;;;5019616;28;20030;-79
2021/12/19 06:05:54;;;;;;;14.45;8.65;;;1.40;99.90;;;;;;5008383;28;20454;-78
2021/12/19 06:08:20;;;;;;;13.82;8.05;;;1.40;99.90;;;;;;4999823;28;20061;-79
2021/12/19 06:10:46;;;;;;;14.95;8.18;;;1.40;99.90;;;;;;5001253;28;20065;-78
2021/12/19 06:13:11;;;;;;;15.10;9.35;;;1.40;99.90;;;;;;5036731;28;20087;-78
2021/12/19 06:15:37;;;;;;;14.48;8.60;;;1.40;99.90;;;;;;5019327;28;20464;-79
2021/12/19 06:18:04;;;;;;;14.27;9.07;;;1.40;99.90;;;;;;5018949;28;20037;-78
2021/12/19 06:20:31;;;;;;;14.82;9.25;;;1.40;99.90;;;;;;5019172;28;20120;-79
2021/12/19 06:22:59;;;;;;;14.25;8.85;;;1.40;99.90;;;;;;5019043;28;20034;-78
2021/12/19 06:25:25;;;;;;;17.17;9.52;;;1.40;99.90;;;;;;5018913;28;20041;-78
2021/12/19 06:27:50;;;;;;;15.65;9.50;;;1.50;99.90;;;;;;5018544;28;20492;-79
2021/12/19 06:30:16;;;;;;;13.90;8.77;;;1.50;99.90;;;;;;5016011;28;20079;-79
2021/12/19 06:32:42;;;;;;;14.25;8.98;;;1.50;99.90;;;;;;5036358;28;20038;-78
2021/12/19 06:35:17;;;;;;;15.30;9.93;;;1.50;99.90;;;;;;5019235;28;20040;-78
2021/12/19 06:37:46;;;;;;;15.23;8.98;;;1.60;99.90;;;;;;5018951;28;20041;-78
2021/12/19 06:40:15;;;;;;;14.95;9.35;;;1.50;99.90;;;;;;5008077;28;20038;-77
2021/12/19 06:42:41;;;;;;;15.35;9.85;;;1.60;99.90;;;;;;4998715;28;20078;-80
2021/12/19 06:45:07;;;;;;;15.35;9.52;;;1.60;99.90;;;;;;5015538;28;20073;-78
2021/12/19 06:47:33;;;;;;;13.30;8.55;;;1.60;99.90;;;;;;5006530;28;20042;-79
2021/12/19 06:49:59;;;;;;;14.88;9.05;;;1.60;99.90;;;;;;5011535;28;20083;-80
2021/12/19 06:52:25;;;;;;;13.68;8.30;;;1.60;99.90;;;;;;5002551;28;20038;-78
2021/12/19 06:54:50;;;;;;;14.45;8.90;;;1.60;99.90;;;;;;4998265;28;20034;-80
2021/12/19 06:57:16;;;;;;;15.35;8.90;;;1.60;99.90;;;;;;5022041;28;20040;-79
2021/12/19 06:59:42;;;;;;;13.88;8.27;;;1.70;99.90;;;;;;5031846;28;20037;-79
2021/12/19 07:02:13;;;;;;;13.88;8.65;;;1.70;99.90;;;;;;5017970;28;20029;-79
2021/12/19 07:04:39;;;;;;;17.30;10.13;;;1.80;99.90;;;;;;5017746;28;20046;-79
2021/12/19 07:07:05;;;;;;;14.38;8.60;;;1.80;99.90;;;;;;5032707;28;20022;-81
2021/12/19 07:09:31;;;;;;;14.80;9.35;;;1.80;99.90;;;;;;5035400;28;20052;-78
2021/12/19 07:11:57;;;;;;;16.63;10.25;;;1.80;99.90;;;;;;5036224;28;20468;-81
2021/12/19 07:14:22;;;;;;;14.80;9.90;;;1.80;99.90;;;;;;5018166;28;20542;-81
2021/12/19 07:16:48;;;;;;;12.52;8.48;;;1.90;99.90;;;;;;5035545;28;20030;-80
2021/12/19 07:19:14;;;;;;;15.23;9.85;;;1.90;99.90;;;;;;5035789;28;20072;-80
2021/12/19 07:21:39;;;;;;;14.55;8.70;;;1.90;99.90;;;;;;5035444;28;20029;-79
2021/12/19 07:24:05;;;;;;;334.33;175.13;;;1.90;99.90;;;;;;5035341;28;20488;-82
2021/12/19 07:26:31;;;;;;;47.05;25.55;;;1.90;99.90;;;;;;5035712;28;20041;-82
2021/12/19 07:28:57;;;;;;;20.83;11.27;;;2.00;99.90;;;;;;5017974;28;20034;-80
2021/12/19 07:31:23;;;;;;;17.52;10.30;;;2.00;99.90;;;;;;5034729;28;20480;-84
2021/12/19 07:33:49;;;;;;;14.43;9.27;;;2.10;99.90;;;;;;5017890;28;20041;-84
2021/12/19 07:36:17;;;;;;;13.57;8.38;;;2.10;99.90;;;;;;5036150;28;20030;-82
2021/12/19 07:39:07;;;;;;;16.27;8.73;;;2.10;99.90;;;;;;5018132;28;20131;-81
2021/12/19 07:41:32;;;;;;;12.70;8.23;;;2.10;99.90;;;;;;5035561;28;20472;-82
2021/12/19 07:43:59;;;;;;;14.00;8.43;;;2.10;99.90;;;;;;5035127;28;20125;-83
2021/12/19 07:46:24;;;;;;;13.30;8.55;;;2.10;99.90;;;;;;5017770;28;20464;-82
2021/12/19 07:48:50;;;;;;;14.55;8.70;;;2.10;99.90;;;;;;5036816;28;20034;-83
2021/12/19 07:51:16;;;;;;;15.82;8.77;;;2.10;99.90;;;;;;5013458;28;20040;-78
2021/12/19 07:53:41;;;;;;;13.50;8.10;;;2.10;99.90;;;;;;5033411;28;20042;-79
2021/12/19 07:56:07;;;;;;;15.00;8.90;;;2.10;99.90;;;;;;5032904;28;20068;-79
2021/12/19 07:58:33;;;;;;;13.05;8.50;;;2.20;99.90;;;;;;5031864;28;20083;-79
2021/12/19 08:00:59;;;;;;;14.35;8.68;;;2.20;99.90;;;;;;5031277;28;20029;-80
2021/12/19 08:03:24;;;;;;;12.05;7.68;;;2.20;99.90;;;;;;5016433;28;20040;-78
2021/12/19 08:05:50;;;;;;;12.85;8.40;;;2.30;99.90;;;;;;5012259;28;20030;-81
2021/12/19 08:08:21;;;;;;;14.20;8.40;;;2.30;99.90;;;;;;5030378;28;20061;-78
2021/12/19 08:13:16;;;;;;;11.95;7.78;;;2.30;99.90;;;;;;5032593;28;20407;-81
2021/12/19 08:15:42;;;;;;;13.57;8.00;;;2.30;99.90;;;;;;5031311;28;20033;-80
2021/12/19 08:18:08;;;;;;;12.48;8.02;;;2.30;99.90;;;;;;5031709;28;20391;-78
2021/12/19 08:20:34;;;;;;;13.10;7.97;;;2.30;99.90;;;;;;5032483;28;20029;-78
2021/12/19 08:23:00;;;;;;;12.23;8.02;;;2.40;99.90;;;;;;5015348;28;20038;-79
2021/12/19 08:25:26;;;;;;;14.25;8.20;;;2.40;99.90;;;;;;5032802;28;20479;-80
2021/12/19 08:27:53;;;;;;;13.43;8.38;;;2.40;99.90;;;;;;5015237;28;20053;-78
2021/12/19 08:30:20;;;;;;;12.98;8.63;;;2.40;99.90;;;;;;5015001;28;20506;-79
2021/12/19 08:32:46;;;;;;;13.63;8.60;;;2.40;99.90;;;;;;5015387;28;20029;-80
2021/12/19 08:35:12;;;;;;;13.18;7.72;;;2.40;99.90;;;;;;5015628;28;20492;-79
2021/12/19 08:37:39;;;;;;;14.32;8.93;;;2.40;99.90;;;;;;5033222;28;20069;-79
2021/12/19 08:40:09;;;;;;;16.10;8.77;;;2.40;99.90;;;;;;5014818;28;20056;-80
2021/12/19 08:42:35;;;;;;;14.52;8.60;;;2.40;99.90;;;;;;5012345;28;20053;-79
2021/12/19 08:45:01;;;;;;;14.23;8.63;;;2.40;99.90;;;;;;5014679;28;20443;-78
2021/12/19 08:47:27;;;;;;;13.57;8.15;;;2.40;99.90;;;;;;5014709;28;20029;-77
2021/12/19 08:49:53;;;;;;;13.18;7.70;;;2.40;99.90;;;;;;5032408;28;20476;-78
2021/12/19 08:52:18;;;;;;;13.48;8.05;;;2.40;99.90;;;;;;5032547;28;20033;-78
2021/12/19 08:54:44;;;;;;;13.13;7.50;;;2.40;99.90;;;;;;5032383;28;20037;-79
2021/12/19 08:57:10;;;;;;;11.88;7.53;;;2.40;99.90;;;;;;5014639;28;20088;-79
2021/12/19 08:59:35;;;;;;;12.82;8.02;;;2.40;99.90;;;;;;5014796;28;20029;-78
2021/12/19 09:02:01;;;;;;;12.52;7.97;;;2.40;99.90;;;;;;5014567;28;20083;-80
2021/12/19 09:04:31;;;;;;;14.32;8.05;;;2.40;99.90;;;;;;5014532;28;20096;-79
2021/12/19 09:06:56;;;;;;;13.07;8.05;;;2.40;99.90;;;;;;5014524;28;20061;-79
2021/12/19 09:09:24;;;;;;;12.80;7.90;;;2.40;99.90;;;;;;5032414;28;20400;-78
2021/12/19 09:11:50;;;;;;;12.07;7.53;;;2.40;99.90;;;;;;5014459;28;20542;-79
2021/12/19 09:14:15;;;;;;;15.20;8.35;;;2.30;99.90;;;;;;5013826;28;20041;-81
2021/12/19 09:16:41;;;;;;;15.27;8.32;;;2.40;99.90;;;;;;5014910;28;20474;-78
2021/12/19 09:19:07;;;;;;;14.63;8.13;;;2.40;99.90;;;;;;5015551;28;20033;-78
2021/12/19 09:21:32;;;;;;;12.98;8.05;;;2.30;99.90;;;;;;5034141;28;20033;-81
2021/12/19 09:23:58;;;;;;;14.15;8.57;;;2.30;99.90;;;;;;5033708;28;20467;-81
2021/12/19 09:26:24;;;;;;;14.00;8.75;;;2.30;99.90;;;;;;5033450;28;20474;-80
2021/12/19 09:28:49;;;;;;;15.73;8.43;;;2.30;99.90;;;;;;5036422;28;20400;-81
2021/12/19 09:31:15;;;;;;;13.70;8.70;;;2.30;99.90;;;;;;5018819;28;20388;-80
2021/12/19 09:33:41;;;;;;;14.00;8.30;;;2.20;99.90;;;;;;5017467;28;20041;-81
2021/12/19 09:36:07;;;;;;;13.38;8.20;;;2.30;99.90;;;;;;5001363;28;20498;-81
2021/12/19 09:38:34;;;;;;;12.93;8.18;;;2.30;99.90;;;;;;5032147;28;20045;-82
2021/12/19 09:41:11;;;;;;;13.65;7.88;;;2.30;99.90;;;;;;5016463;28;20034;-82
2021/12/19 09:43:42;;;;;;;12.75;8.40;;;2.30;99.90;;;;;;5015597;28;20077;-80
2021/12/19 09:46:16;;;;;;;13.82;7.78;;;2.40;99.90;;;;;;5033004;28;20042;-81
2021/12/19 09:48:44;;;;;;;13.48;7.88;;;2.40;99.90;;;;;;5033062;28;20040;-82
2021/12/19 09:51:11;;;;;;;12.75;7.40;;;2.40;99.90;;;;;;5016307;28;20083;-83
2021/12/19 09:53:38;;;;;;;13.20;7.80;;;2.40;99.90;;;;;;5028991;28;20034;-85
2021/12/19 09:56:05;;;;;;;12.95;7.80;;;2.40;99.90;;;;;;5032121;28;20084;-83
2021/12/19 09:58:32;;;;;;;12.15;7.63;;;2.40;99.90;;;;;;5014161;28;20029;-85
2021/12/19 10:01:01;;;;;;;14.35;7.70;;;2.40;99.90;;;;;;5032698;28;20022;-88
2021/12/19 10:03:26;;;;;;;13.27;7.75;;;2.40;99.90;;;;;;5031912;28;20070;-83
2021/12/19 10:06:19;;;;;;;14.27;8.40;;;2.40;99.90;;;;;;5013858;28;20395;-83
2021/12/19 10:09:06;;;;;;;11.88;7.80;;;2.30;99.90;;;;;;5031224;28;20583;-84
2021/12/19 10:11:58;;;;;;;12.98;7.30;;;2.30;99.90;;;;;;5031738;28;20117;-81
2021/12/19 10:14:32;;;;;;;12.85;7.13;;;2.20;99.90;;;;;;5013912;28;20093;-82
2021/12/19 10:17:19;;;;;;;13.63;7.22;;;2.30;99.90;;;;;;5031796;28;20025;-82
2021/12/19 10:19:50;;;;;;;10.80;6.78;;;2.30;99.90;;;;;;5031697;28;20025;-82
2021/12/19 10:22:23;;;;;;;10.93;6.63;;;2.30;99.90;;;;;;5014219;28;20444;-82
2021/12/19 10:24:49;;;;;;;12.02;6.53;;;2.30;99.90;;;;;;5013180;28;20104;-83
2021/12/19 10:27:44;;;;;;;12.23;6.45;;;2.30;99.90;;;;;;5033899;28;20468;-81
2021/12/19 10:30:29;;;;;;;9.63;5.88;;;2.30;99.90;;;;;;5036215;28;20107;-82
2021/12/19 10:33:01;;;;;;;11.60;6.20;;;2.30;99.90;;;;;;5018556;28;20052;-83
2021/12/19 10:35:35;;;;;;;10.30;6.20;;;2.40;99.90;;;;;;5018688;28;20479;-83
2021/12/19 10:38:03;;;;;;;9.48;6.10;;;2.30;99.90;;;;;;5018264;28;20036;-83
2021/12/19 10:40:30;;;;;;;9.13;5.88;;;2.40;99.90;;;;;;5036259;28;20170;-84
2021/12/19 10:43:00;;;;;;;10.18;6.07;;;2.30;99.90;;;;;;5018300;28;20053;-84
2021/12/19 10:45:44;;;;;;;10.63;5.57;;;2.30;99.90;;;;;;5017733;28;20072;-84
2021/12/19 10:48:15;;;;;;;9.77;5.78;;;2.30;99.90;;;;;;5016068;28;20037;-83
2021/12/19 10:50:59;;;;;;;12.63;6.47;;;2.30;99.90;;;;;;5033487;28;20473;-84
2021/12/19 10:53:46;;;;;;;8.88;5.72;;;2.30;99.90;;;;;;5014435;28;20132;-85
2021/12/19 10:56:25;;;;;;;9.52;5.57;;;2.30;99.90;;;;;;5014710;28;20476;-83
2021/12/19 10:59:08;;;;;;;9.55;5.10;;;2.30;99.90;;;;;;5032486;28;20033;-83
2021/12/19 11:01:44;;;;;;;8.65;5.35;;;2.30;99.90;;;;;;5015243;28;20132;-83
2021/12/19 11:04:11;;;;;;;9.98;5.47;;;2.30;99.90;;;;;;5016247;28;20059;-84
2021/12/19 11:06:41;;;;;;;8.63;5.28;;;2.20;99.90;;;;;;5017056;28;20040;-83
2021/12/19 11:09:10;;;;;;;9.10;4.90;;;2.20;99.90;;;;;;5036157;28;20453;-83
2021/12/19 11:11:41;;;;;;;9.10;5.32;;;2.20;99.90;;;;;;5036637;28;20116;-84
2021/12/19 11:14:09;;;;;;;9.13;5.30;;;2.20;99.90;;;;;;5036065;28;20037;-83
2021/12/19 11:16:35;;;;;;;7.50;5.05;;;2.20;99.90;;;;;;5036187;28;20509;-83
2021/12/19 11:19:01;;;;;;;8.25;5.20;;;2.20;99.90;;;;;;5036688;28;20031;-82
2021/12/19 11:21:32;;;;;;;8.27;4.90;;;2.10;99.90;;;;;;5020039;28;20380;-83
2021/12/19 11:23:59;;;;;;;9.02;5.10;;;2.10;99.90;;;;;;5019498;28;20061;-83
2021/12/19 11:26:24;;;;;;;8.65;4.65;;;2.10;99.90;;;;;;5035871;28;20030;-83
2021/12/19 11:28:53;;;;;;;9.23;5.20;;;2.00;99.90;;;;;;5036120;28;20034;-83
2021/12/19 11:31:19;;;;;;;8.30;4.82;;;2.00;99.90;;;;;;5035329;28;20022;-83
2021/12/19 11:34:03;;;;;;;7.85;4.65;;;1.90;99.90;;;;;;5019006;28;20042;-82
2021/12/19 11:36:35;;;;;;;7.13;4.50;;;1.90;99.90;;;;;;5018496;28;20491;-83
2021/12/19 11:39:03;;;;;;;9.43;4.75;;;1.80;99.90;;;;;;5035460;28;20146;-83
2021/12/19 11:41:29;;;;;;;10.60;4.80;;;1.80;99.90;;;;;;5016588;28;20400;-83
2021/12/19 11:43:56;;;;;;;7.50;4.78;;;1.70;99.90;;;;;;5034968;28;20042;-82
2021/12/19 11:46:55;;;;;;;7.78;5.05;;;1.60;99.90;;;;;;5034985;28;20044;-84
2021/12/19 11:49:24;;;;;;;8.18;4.90;;;1.50;99.90;;;;;;5017446;28;20361;-83
2021/12/19 11:52:25;;;;;;;9.30;4.95;;;1.50;99.90;;;;;;5035076;28;20025;-83
2021/12/19 11:55:16;;;;;;;7.82;4.50;;;1.40;99.90;;;;;;5017279;28;20037;-84
2021/12/19 11:57:43;;;;;;;7.88;4.90;;;1.40;99.90;;;;;;5018300;28;20365;-82
2021/12/19 12:00:34;;;;;;;10.25;5.35;;;1.40;99.90;;;;;;5035180;28;20025;-84
2021/12/19 12:03:12;;;;;;;7.85;4.55;;;1.40;99.90;;;;;;5035206;28;20034;-82
2021/12/19 12:05:43;;;;;;;8.30;5.13;;;1.30;99.90;;;;;;5016894;28;20045;-83
2021/12/19 12:08:09;;;;;;;8.00;5.03;;;1.30;99.90;;;;;;5034654;28;20488;-83
2021/12/19 12:11:04;;;;;;;9.23;5.20;;;1.30;99.90;;;;;;5034842;28;20475;-83
2021/12/19 12:13:30;;;;;;;9.52;5.50;;;1.30;99.90;;;;;;5032640;28;20037;-86
2021/12/19 12:16:20;;;;;;;10.13;5.00;;;1.20;99.90;;;;;;5034953;28;20524;-82
2021/12/19 12:18:55;;;;;;;9.63;5.00;;;1.20;99.90;;;;;;5037564;28;20502;-85
2021/12/19 12:23:59;;;;;;;9.68;5.13;;;1.20;99.90;;;;;;5034684;28;20116;-83
2021/12/19 12:26:28;;;;;;;9.20;4.82;;;1.30;99.90;;;;;;5016627;28;20092;-83
2021/12/19 12:28:54;;;;;;;8.65;5.25;;;1.20;99.90;;;;;;5017078;28;20499;-83
2021/12/19 12:31:20;;;;;;;9.15;4.88;;;1.30;99.90;;;;;;5016406;28;20036;-83
2021/12/19 12:33:46;;;;;;;6.97;4.38;;;1.30;99.90;;;;;;5034104;28;20030;-83
2021/12/19 12:36:12;;;;;;;9.32;4.90;;;1.40;99.90;;;;;;5034249;28;20034;-84
2021/12/19 12:38:45;;;;;;;9.43;4.70;;;1.40;99.90;;;;;;5016505;28;20167;-83
2021/12/19 12:41:26;;;;;;;7.15;4.70;;;1.50;99.90;;;;;;5034439;28;20124;-84
2021/12/19 12:43:52;;;;;;;8.40;4.80;;;1.50;99.90;;;;;;5016096;28;20053;-83
2021/12/19 12:46:22;;;;;;;9.23;4.72;;;1.60;99.90;;;;;;5016475;28;20396;-82
2021/12/19 12:49:19;;;;;;;9.45;5.00;;;1.60;99.90;;;;;;5016379;28;20037;-83
2021/12/19 12:51:57;;;;;;;8.07;4.45;;;1.70;99.90;;;;;;5017208;28;20087;-83
2021/12/19 12:54:33;;;;;;;9.48;5.60;;;1.70;99.90;;;;;;5034019;28;20095;-84
2021/12/19 12:57:01;;;;;;;10.15;5.35;;;1.70;99.90;;;;;;5010176;28;20064;-80
2021/12/19 12:59:28;;;;;;;71.45;41.65;;;1.70;99.90;;;;;;5019945;28;20041;-81
2021/12/19 13:02:06;;;;;;;61.65;34.95;;;1.80;99.90;;;;;;4996550;28;20030;-80
2021/12/19 13:04:32;;;;;;;24.92;15.07;;;1.80;99.90;;;;;;5014719;28;20046;-81
2021/12/19 13:07:10;;;;;;;15.45;8.75;;;1.90;99.90;;;;;;5012483;28;20092;-87
2021/12/19 13:09:43;;;;;;;11.75;6.88;;;1.90;99.90;;;;;;5017378;28;20140;-85
2021/12/19 13:12:20;;;;;;;12.07;6.75;;;1.90;99.90;;;;;;5016557;28;20076;-85
2021/12/19 13:14:51;;;;;;;12.13;6.30;;;2.00;99.90;;;;;;5016876;28;20041;-83
2021/12/19 13:17:31;;;;;;;12.48;6.82;;;2.00;99.90;;;;;;5030048;28;20100;-84
2021/12/19 13:20:13;;;;;;;11.18;6.32;;;2.00;99.90;;;;;;5014181;28;20191;-83
2021/12/19 13:22:46;;;;;;;11.65;6.45;;;2.00;99.90;;;;;;5011361;28;20117;-83
2021/12/19 13:25:12;;;;;;;22.38;13.90;;;2.10;99.90;;;;;;5036564;28;20037;-86
2021/12/19 13:27:41;;;;;;;18.95;10.20;;;2.10;99.90;;;;;;5033104;28;20103;-84
2021/12/19 13:30:10;;;;;;;15.77;8.30;;;2.10;99.90;;;;;;5015518;28;20030;-84
2021/12/19 13:32:40;;;;;;;15.25;7.55;;;2.10;99.90;;;;;;5032885;28;20041;-83
2021/12/19 13:35:42;;;;;;;13.30;7.60;;;2.10;99.90;;;;;;5033034;28;20514;-85
2021/12/19 13:38:16;;;;;;;15.07;7.78;;;2.20;99.90;;;;;;5025482;28;20033;-84
2021/12/19 13:40:55;;;;;;;12.57;6.97;;;2.20;99.90;;;;;;5033381;28;20484;-88
2021/12/19 13:43:35;;;;;;;13.07;7.35;;;2.20;99.90;;;;;;5026283;28;20045;-84
2021/12/19 13:46:10;;;;;;;14.95;7.43;;;2.20;99.90;;;;;;5016028;28;20122;-86
2021/12/19 13:48:51;;;;;;;14.38;7.00;;;2.30;99.90;;;;;;5032598;28;20037;-86
2021/12/19 13:51:29;;;;;;;12.30;7.18;;;2.30;99.90;;;;;;5013657;28;20384;-84
2021/12/19 13:53:57;;;;;;;13.25;7.30;;;2.30;99.90;;;;;;5015528;28;20129;-84
2021/12/19 13:56:27;;;;;;;14.57;6.75;;;2.40;99.90;;;;;;5032801;28;20044;-84
2021/12/19 13:58:59;;;;;;;14.73;7.53;;;2.40;99.90;;;;;;5015853;28;20030;-85
2021/12/19 14:01:32;;;;;;;12.48;6.78;;;2.40;99.90;;;;;;5015305;28;20038;-86
2021/12/19 14:04:14;;;;;;;11.95;6.45;;;2.50;99.90;;;;;;5033868;28;20040;-86
2021/12/19 14:06:42;;;;;;;15.18;7.10;;;2.60;99.90;;;;;;5033589;28;20041;-87
2021/12/19 14:09:12;;;;;;;12.25;6.75;;;2.60;99.90;;;;;;5017229;28;20041;-85
2021/12/19 14:11:42;;;;;;;13.18;6.80;;;2.70;99.90;;;;;;5039056;28;20068;-83
2021/12/19 14:17:11;;;;;;;14.50;6.88;;;2.80;99.90;;;;;;5037330;28;20061;-83